Time,TemperatureF,DewpointF,PressureIn,WindDirection,WindDirectionDegrees,WindSpeedMPH,WindSpeedGustMPH,Humidity,HourlyPrecipIn,Conditions,Clouds,dailyrainin,SoftwareType,DateUTC
2013-08-24 00:04:00,76.0,74.0,-100.00,SW,215,0.0,4.0,92,0.00,,,0.00,,2013-08-24 04:04:00,
2013-08-24 00:14:00,76.0,74.0,-100.00,SW,215,0.0,4.0,92,0.00,,,0.00,,2013-08-24 04:14:00,
2013-08-24 00:23:00,76.0,74.0,-100.00,SSW,204,0.0,1.0,94,0.00,,,0.00,,2013-08-24 04:23:00,
2013-08-24 00:54:00,76.0,74.0,-100.00,SSW,204,0.0,1.0,94,0.00,,,0.00,,2013-08-24 04:54:00,
2013-08-24 01:03:00,76.0,74.0,-100.00,SSW,204,0.0,1.0,94,0.00,,,0.00,,2013-08-24 05:03:00,
2013-08-24 01:13:00,76.0,74.0,-100.00,SSW,204,0.0,1.0,94,0.00,,,0.00,,2013-08-24 05:13:00,
2013-08-24 01:53:00,75.0,74.0,-100.00,SSW,209,0.0,0.0,96,0.00,,,0.00,,2013-08-24 05:53:00,
2013-08-24 02:02:00,75.0,74.0,-100.00,SSW,209,0.0,0.0,96,0.00,,,0.00,,2013-08-24 06:02:00,
2013-08-24 02:12:00,75.0,74.0,-100.00,SSW,209,0.0,0.0,96,0.00,,,0.00,,2013-08-24 06:12:00,
2013-08-24 02:22:00,75.0,74.0,-100.00,SSW,209,0.0,0.0,96,0.00,,,0.00,,2013-08-24 06:22:00,
2013-08-24 02:52:00,75.0,74.0,-100.00,SSE,166,0.0,0.0,97,0.00,,,0.00,,2013-08-24 06:52:00,
2013-08-24 03:02:00,75.0,74.0,-100.00,SSE,166,0.0,0.0,97,0.00,,,0.00,,2013-08-24 07:02:00,
2013-08-24 03:12:00,75.0,74.0,-100.00,SSE,166,0.0,0.0,97,0.00,,,0.00,,2013-08-24 07:12:00,
2013-08-24 03:22:00,75.0,74.0,-100.00,SSE,166,0.0,0.0,97,0.00,,,0.00,,2013-08-24 07:22:00,
2013-08-24 03:53:00,74.0,73.0,-100.00,SSW,203,0.0,0.0,97,0.00,,,0.00,,2013-08-24 07:53:00,
2013-08-24 04:02:00,74.0,73.0,-100.00,SSW,203,0.0,0.0,97,0.00,,,0.00,,2013-08-24 08:02:00,
2013-08-24 04:12:00,74.0,73.0,-100.00,SSW,203,0.0,0.0,97,0.00,,,0.00,,2013-08-24 08:12:00,
2013-08-24 04:22:00,74.0,73.0,-100.00,SSW,203,0.0,0.0,97,0.00,,,0.00,,2013-08-24 08:22:00,
2013-08-24 04:52:00,74.0,73.0,-100.00,SSW,212,0.0,2.0,97,0.00,,,0.00,,2013-08-24 08:52:00,
2013-08-24 05:01:00,74.0,73.0,-100.00,SSW,212,0.0,2.0,97,0.00,,,0.00,,2013-08-24 09:01:00,
2013-08-24 05:11:00,74.0,73.0,-100.00,SSW,212,0.0,2.0,97,0.00,,,0.00,,2013-08-24 09:11:00,
2013-08-24 05:22:00,74.0,73.0,-100.00,SSW,212,0.0,2.0,97,0.00,,,0.00,,2013-08-24 09:22:00,
2013-08-24 05:23:00,75.0,74.0,-100.00,SW,217,1.0,5.0,96,0.00,,,0.00,,2013-08-24 09:23:00,
2013-08-24 05:53:00,75.0,74.0,-100.00,SW,217,1.0,5.0,96,0.00,,,0.00,,2013-08-24 09:53:00,
2013-08-24 06:04:00,75.0,74.0,-100.00,SW,217,1.0,5.0,96,0.00,,,0.00,,2013-08-24 10:04:00,
2013-08-24 06:13:00,75.0,74.0,-100.00,SW,217,1.0,5.0,96,0.00,,,0.00,,2013-08-24 10:13:00,
2013-08-24 06:53:00,73.0,72.0,-100.00,SSW,196,0.0,2.0,97,0.00,,,0.00,,2013-08-24 10:53:00,
2013-08-24 07:03:00,73.0,72.0,-100.00,SSW,196,0.0,2.0,97,0.00,,,0.00,,2013-08-24 11:03:00,
2013-08-24 07:12:00,73.0,72.0,-100.00,SSW,196,0.0,2.0,97,0.00,,,0.00,,2013-08-24 11:12:00,
2013-08-24 07:22:00,73.0,72.0,-100.00,SSW,196,0.0,2.0,97,0.00,,,0.00,,2013-08-24 11:22:00,
2013-08-24 07:52:00,73.0,72.0,-100.00,South,172,0.0,2.0,97,0.00,,,-99.99,,2013-08-24 11:52:00,
2013-08-24 08:02:00,73.0,72.0,-100.00,South,172,0.0,2.0,97,0.00,,,-99.99,,2013-08-24 12:02:00,
2013-08-24 08:12:00,73.0,72.0,-100.00,South,172,0.0,2.0,97,0.00,,,-99.99,,2013-08-24 12:12:00,
2013-08-24 08:21:00,73.0,72.0,-100.00,South,172,0.0,2.0,97,0.00,,,-99.99,,2013-08-24 12:21:00,
2013-08-24 08:52:00,75.0,73.0,-100.00,ESE,106,0.0,5.0,94,0.00,,,0.00,,2013-08-24 12:52:00,
2013-08-24 09:02:00,75.0,73.0,-100.00,ESE,106,0.0,5.0,94,0.00,,,0.00,,2013-08-24 13:02:00,
2013-08-24 09:11:00,75.0,73.0,-100.00,ESE,106,0.0,5.0,94,0.00,,,0.00,,2013-08-24 13:11:00,
2013-08-24 09:22:00,75.0,73.0,-100.00,ESE,106,0.0,5.0,94,0.00,,,0.00,,2013-08-24 13:22:00,
2013-08-24 09:52:00,76.0,73.0,-100.00,ENE,69,6.0,13.0,89,0.00,,,0.00,,2013-08-24 13:52:00,
2013-08-24 10:02:00,76.0,73.0,-100.00,ENE,69,6.0,13.0,89,0.00,,,0.00,,2013-08-24 14:02:00,
2013-08-24 10:11:00,76.0,73.0,-100.00,ENE,69,6.0,13.0,89,0.00,,,0.00,,2013-08-24 14:11:00,
2013-08-24 10:22:00,76.0,73.0,-100.00,ENE,69,6.0,13.0,89,0.00,,,0.00,,2013-08-24 14:22:00,
2013-08-24 10:52:00,76.0,72.0,-100.00,ENE,67,8.0,12.0,86,0.00,,,0.00,,2013-08-24 14:52:00,
2013-08-24 11:01:00,76.0,72.0,-100.00,ENE,67,8.0,12.0,86,0.00,,,0.00,,2013-08-24 15:01:00,
2013-08-24 11:12:00,76.0,72.0,-100.00,ENE,67,8.0,12.0,86,0.00,,,0.00,,2013-08-24 15:12:00,
2013-08-24 11:22:00,76.0,72.0,-100.00,ENE,67,8.0,12.0,86,0.00,,,0.00,,2013-08-24 15:22:00,
2013-08-24 11:23:00,76.0,71.0,-100.00,ENE,71,9.0,16.0,84,0.00,,,0.00,,2013-08-24 15:23:00,
2013-08-24 11:54:00,76.0,71.0,-100.00,ENE,71,9.0,16.0,84,0.00,,,0.00,,2013-08-24 15:54:00,
2013-08-24 12:04:00,76.0,71.0,-100.00,ENE,71,9.0,16.0,84,0.00,,,0.00,,2013-08-24 16:04:00,
2013-08-24 12:14:00,76.0,71.0,-100.00,ENE,71,9.0,16.0,84,0.00,,,0.00,,2013-08-24 16:14:00,
2013-08-24 12:23:00,77.0,71.0,-100.00,East,79,8.0,13.0,82,0.00,,,0.00,,2013-08-24 16:23:00,
2013-08-24 12:53:00,77.0,71.0,-100.00,East,79,8.0,13.0,82,0.00,,,0.00,,2013-08-24 16:53:00,
2013-08-24 13:02:00,77.0,71.0,-100.00,East,79,8.0,13.0,82,0.00,,,0.00,,2013-08-24 17:02:00,
2013-08-24 13:12:00,77.0,71.0,-100.00,East,79,8.0,13.0,82,0.00,,,0.00,,2013-08-24 17:12:00,
2013-08-24 13:52:00,77.0,71.0,-100.00,ENE,75,7.0,11.0,82,0.00,,,0.00,,2013-08-24 17:52:00,
2013-08-24 14:03:00,77.0,71.0,-100.00,ENE,75,7.0,11.0,82,0.00,,,0.00,,2013-08-24 18:03:00,
2013-08-24 14:13:00,77.0,71.0,-100.00,ENE,75,7.0,11.0,82,0.00,,,0.00,,2013-08-24 18:13:00,
2013-08-24 14:22:00,77.0,71.0,-100.00,ENE,75,7.0,11.0,82,0.00,,,0.00,,2013-08-24 18:22:00,
2013-08-24 14:53:00,77.0,71.0,-100.00,ENE,65,6.0,11.0,83,0.00,,,0.00,,2013-08-24 18:53:00,
2013-08-24 15:01:00,77.0,71.0,-100.00,ENE,65,6.0,11.0,83,0.00,,,0.00,,2013-08-24 19:01:00,
2013-08-24 15:12:00,77.0,71.0,-100.00,ENE,65,6.0,11.0,83,0.00,,,0.00,,2013-08-24 19:12:00,
2013-08-24 15:22:00,77.0,71.0,-100.00,ENE,65,6.0,11.0,83,0.00,,,0.00,,2013-08-24 19:22:00,
2013-08-24 15:52:00,78.0,72.0,-100.00,ESE,102,3.0,9.0,81,0.00,,,0.00,,2013-08-24 19:52:00,
2013-08-24 16:02:00,78.0,72.0,-100.00,ESE,102,3.0,9.0,81,0.00,,,0.00,,2013-08-24 20:02:00,
2013-08-24 16:12:00,78.0,72.0,-100.00,ESE,102,3.0,9.0,81,0.00,,,0.00,,2013-08-24 20:12:00,
2013-08-24 16:22:00,78.0,72.0,-100.00,ESE,102,3.0,9.0,81,0.00,,,0.00,,2013-08-24 20:22:00,
2013-08-24 16:53:00,83.0,72.0,-100.00,ESE,106,2.0,6.0,69,0.00,,,0.00,,2013-08-24 20:53:00,
2013-08-24 17:02:00,83.0,72.0,-100.00,ESE,106,2.0,6.0,69,0.00,,,0.00,,2013-08-24 21:02:00,
2013-08-24 17:11:00,83.0,72.0,-100.00,ESE,106,2.0,6.0,69,0.00,,,0.00,,2013-08-24 21:11:00,
2013-08-24 17:22:00,83.0,72.0,-100.00,ESE,106,2.0,6.0,69,0.00,,,0.00,,2013-08-24 21:22:00,
2013-08-24 17:23:00,82.0,72.0,-100.00,NNE,23,2.0,6.0,73,0.00,,,0.00,,2013-08-24 21:23:00,
2013-08-24 17:55:00,82.0,72.0,-100.00,NNE,23,2.0,6.0,73,0.00,,,0.00,,2013-08-24 21:55:00,
2013-08-24 18:04:00,82.0,72.0,-100.00,NNE,23,2.0,6.0,73,0.00,,,0.00,,2013-08-24 22:04:00,
2013-08-24 18:14:00,82.0,72.0,-100.00,NNE,23,2.0,6.0,73,0.00,,,0.00,,2013-08-24 22:14:00,
2013-08-24 18:53:00,83.0,73.0,-100.00,ENE,73,2.0,7.0,72,0.00,,,0.00,,2013-08-24 22:53:00,
2013-08-24 19:03:00,83.0,73.0,-100.00,ENE,73,2.0,7.0,72,0.00,,,0.00,,2013-08-24 23:03:00,
2013-08-24 19:12:00,83.0,73.0,-100.00,ENE,73,2.0,7.0,72,0.00,,,0.00,,2013-08-24 23:12:00,
2013-08-24 19:22:00,83.0,73.0,-100.00,ENE,73,2.0,7.0,72,0.00,,,0.00,,2013-08-24 23:22:00,
2013-08-24 19:53:00,79.0,71.0,-100.00,NE,56,6.0,9.0,77,0.00,,,0.00,,2013-08-24 23:53:00,
2013-08-24 20:02:00,79.0,71.0,-100.00,NE,56,6.0,9.0,77,0.00,,,0.00,,2013-08-25 00:02:00,
2013-08-24 20:12:00,79.0,71.0,-100.00,NE,56,6.0,9.0,77,0.00,,,0.00,,2013-08-25 00:12:00,
2013-08-24 20:22:00,79.0,71.0,-100.00,NE,56,6.0,9.0,77,0.00,,,0.00,,2013-08-25 00:22:00,
2013-08-24 20:52:00,77.0,71.0,-100.00,ENE,62,4.0,9.0,81,0.00,,,0.00,,2013-08-25 00:52:00,
2013-08-24 21:01:00,77.0,71.0,-100.00,ENE,62,4.0,9.0,81,0.00,,,0.00,,2013-08-25 01:01:00,
2013-08-24 21:11:00,77.0,71.0,-100.00,ENE,62,4.0,9.0,81,0.00,,,0.00,,2013-08-25 01:11:00,
2013-08-24 21:22:00,77.0,71.0,-100.00,ENE,62,4.0,9.0,81,0.00,,,0.00,,2013-08-25 01:22:00,
2013-08-24 21:52:00,76.0,70.0,-100.00,ENE,64,5.0,9.0,82,0.00,,,0.00,,2013-08-25 01:52:00,
2013-08-24 22:02:00,76.0,70.0,-100.00,ENE,64,5.0,9.0,82,0.00,,,0.00,,2013-08-25 02:02:00,
2013-08-24 22:12:00,76.0,70.0,-100.00,ENE,64,5.0,9.0,82,0.00,,,0.00,,2013-08-25 02:12:00,
2013-08-24 22:22:00,76.0,70.0,-100.00,ENE,64,5.0,9.0,82,0.00,,,0.00,,2013-08-25 02:22:00,
2013-08-24 22:23:00,75.0,69.0,-100.00,ENE,76,4.0,8.0,83,0.00,,,0.00,,2013-08-25 02:23:00,
2013-08-24 22:52:00,75.0,69.0,-100.00,ENE,76,4.0,8.0,83,0.00,,,0.00,,2013-08-25 02:52:00,
2013-08-24 23:02:00,75.0,69.0,-100.00,ENE,76,4.0,8.0,83,0.00,,,0.00,,2013-08-25 03:02:00,
2013-08-24 23:11:00,75.0,69.0,-100.00,ENE,76,4.0,8.0,83,0.00,,,0.00,,2013-08-25 03:11:00,
2013-08-24 23:23:00,74.0,70.0,-100.00,ENE,69,3.0,7.0,86,0.00,,,0.00,,2013-08-25 03:23:00,
2013-08-24 23:54:00,74.0,70.0,-100.00,ENE,69,3.0,7.0,86,0.00,,,0.00,,2013-08-25 03:54:00,